sensor_id;sensor_type;location;lat;lon;timestamp;P1;durP1;ratioP1;P2;durP2;ratioP2
67602;SDS011;54417;47.454;18.918;2023-03-19T00:01:54;17.63;;;10.27;;
67602;SDS011;54417;47.454;18.918;2023-03-19T00:07:28;14.95;;;9.52;;
67602;SDS011;54417;47.454;18.918;2023-03-19T00:12:52;17.25;;;9.85;;
67602;SDS011;54417;47.454;18.918;2023-03-19T00:18:16;19.67;;;10.57;;
67602;SDS011;54417;47.454;18.918;2023-03-19T00:23:41;22.55;;;11.13;;
67602;SDS011;54417;47.454;18.918;2023-03-19T00:29:05;26.35;;;11.25;;
67602;SDS011;54417;47.454;18.918;2023-03-19T00:34:30;18.52;;;10.77;;
67602;SDS011;54417;47.454;18.918;2023-03-19T00:39:55;19.67;;;11.10;;
67602;SDS011;54417;47.454;18.918;2023-03-19T00:45:19;22.35;;;11.30;;
67602;SDS011;54417;47.454;18.918;2023-03-19T00:50:43;20.45;;;11.77;;
67602;SDS011;54417;47.454;18.918;2023-03-19T00:56:09;21.85;;;12.15;;
67602;SDS011;54417;47.454;18.918;2023-03-19T01:01:34;18.27;;;10.90;;
67602;SDS011;54417;47.454;18.918;2023-03-19T01:06:59;20.00;;;11.25;;
67602;SDS011;54417;47.454;18.918;2023-03-19T01:12:24;22.42;;;11.15;;
67602;SDS011;54417;47.454;18.918;2023-03-19T01:17:48;19.52;;;11.35;;
67602;SDS011;54417;47.454;18.918;2023-03-19T01:23:12;17.35;;;9.82;;
67602;SDS011;54417;47.454;18.918;2023-03-19T01:28:37;18.20;;;10.95;;
67602;SDS011;54417;47.454;18.918;2023-03-19T01:34:02;20.90;;;12.18;;
67602;SDS011;54417;47.454;18.918;2023-03-19T01:39:33;18.70;;;11.03;;
67602;SDS011;54417;47.454;18.918;2023-03-19T01:45:02;25.95;;;11.40;;
67602;SDS011;54417;47.454;18.918;2023-03-19T01:51:07;21.17;;;11.60;;
67602;SDS011;54417;47.454;18.918;2023-03-19T01:56:57;19.77;;;10.25;;
67602;SDS011;54417;47.454;18.918;2023-03-19T02:02:50;20.27;;;11.20;;
67602;SDS011;54417;47.454;18.918;2023-03-19T02:08:44;18.92;;;11.05;;
67602;SDS011;54417;47.454;18.918;2023-03-19T02:14:09;28.35;;;12.23;;
67602;SDS011;54417;47.454;18.918;2023-03-19T02:19:37;17.55;;;11.07;;
67602;SDS011;54417;47.454;18.918;2023-03-19T02:25:08;21.38;;;11.43;;
67602;SDS011;54417;47.454;18.918;2023-03-19T02:30:41;20.92;;;11.48;;
67602;SDS011;54417;47.454;18.918;2023-03-19T02:36:08;21.25;;;11.52;;
67602;SDS011;54417;47.454;18.918;2023-03-19T02:41:35;24.38;;;11.70;;
67602;SDS011;54417;47.454;18.918;2023-03-19T02:47:05;22.63;;;10.95;;
67602;SDS011;54417;47.454;18.918;2023-03-19T02:52:29;23.65;;;11.90;;
67602;SDS011;54417;47.454;18.918;2023-03-19T02:57:53;19.95;;;11.50;;
67602;SDS011;54417;47.454;18.918;2023-03-19T03:03:18;20.67;;;12.00;;
67602;SDS011;54417;47.454;18.918;2023-03-19T03:08:42;22.98;;;11.20;;
67602;SDS011;54417;47.454;18.918;2023-03-19T03:14:06;21.70;;;11.82;;
67602;SDS011;54417;47.454;18.918;2023-03-19T03:19:31;18.65;;;10.93;;
67602;SDS011;54417;47.454;18.918;2023-03-19T03:24:55;17.75;;;11.07;;
67602;SDS011;54417;47.454;18.918;2023-03-19T03:30:19;15.55;;;10.40;;
67602;SDS011;54417;47.454;18.918;2023-03-19T03:35:44;18.45;;;10.25;;
67602;SDS011;54417;47.454;18.918;2023-03-19T03:41:09;20.02;;;10.77;;
67602;SDS011;54417;47.454;18.918;2023-03-19T03:46:33;18.35;;;9.85;;
67602;SDS011;54417;47.454;18.918;2023-03-19T03:51:58;17.95;;;10.48;;
67602;SDS011;54417;47.454;18.918;2023-03-19T03:57:22;18.38;;;10.20;;
67602;SDS011;54417;47.454;18.918;2023-03-19T04:02:46;20.98;;;10.68;;
67602;SDS011;54417;47.454;18.918;2023-03-19T04:08:12;18.42;;;10.75;;
67602;SDS011;54417;47.454;18.918;2023-03-19T04:13:37;19.90;;;9.48;;
67602;SDS011;54417;47.454;18.918;2023-03-19T04:19:01;18.58;;;10.85;;
67602;SDS011;54417;47.454;18.918;2023-03-19T04:24:26;16.67;;;9.75;;
67602;SDS011;54417;47.454;18.918;2023-03-19T04:29:52;16.13;;;8.93;;
67602;SDS011;54417;47.454;18.918;2023-03-19T04:35:17;14.88;;;7.88;;
67602;SDS011;54417;47.454;18.918;2023-03-19T04:40:42;18.48;;;9.32;;
67602;SDS011;54417;47.454;18.918;2023-03-19T04:46:06;17.00;;;8.63;;
67602;SDS011;54417;47.454;18.918;2023-03-19T04:51:30;17.40;;;9.35;;
67602;SDS011;54417;47.454;18.918;2023-03-19T04:56:56;17.55;;;9.40;;
67602;SDS011;54417;47.454;18.918;2023-03-19T05:02:24;21.80;;;9.15;;
67602;SDS011;54417;47.454;18.918;2023-03-19T05:07:49;15.80;;;9.15;;
67602;SDS011;54417;47.454;18.918;2023-03-19T05:13:14;17.73;;;10.40;;
67602;SDS011;54417;47.454;18.918;2023-03-19T05:18:44;15.93;;;8.63;;
67602;SDS011;54417;47.454;18.918;2023-03-19T05:24:09;21.88;;;11.23;;
67602;SDS011;54417;47.454;18.918;2023-03-19T05:29:35;16.45;;;9.13;;
67602;SDS011;54417;47.454;18.918;2023-03-19T05:35:19;15.32;;;8.07;;
67602;SDS011;54417;47.454;18.918;2023-03-19T05:40:44;12.05;;;7.35;;
67602;SDS011;54417;47.454;18.918;2023-03-19T05:46:25;14.43;;;7.70;;
67602;SDS011;54417;47.454;18.918;2023-03-19T05:51:49;14.05;;;6.25;;
67602;SDS011;54417;47.454;18.918;2023-03-19T05:57:14;7.70;;;5.32;;
67602;SDS011;54417;47.454;18.918;2023-03-19T06:02:46;7.70;;;6.10;;
67602;SDS011;54417;47.454;18.918;2023-03-19T06:08:29;8.55;;;6.10;;
67602;SDS011;54417;47.454;18.918;2023-03-19T06:14:16;9.20;;;5.47;;
67602;SDS011;54417;47.454;18.918;2023-03-19T06:19:58;7.85;;;5.30;;
67602;SDS011;54417;47.454;18.918;2023-03-19T06:25:22;6.70;;;5.43;;
67602;SDS011;54417;47.454;18.918;2023-03-19T06:30:46;8.90;;;6.07;;
67602;SDS011;54417;47.454;18.918;2023-03-19T06:36:40;11.52;;;6.25;;
67602;SDS011;54417;47.454;18.918;2023-03-19T06:42:07;9.93;;;6.43;;
67602;SDS011;54417;47.454;18.918;2023-03-19T06:47:32;11.63;;;5.80;;
67602;SDS011;54417;47.454;18.918;2023-03-19T06:52:57;10.07;;;6.35;;
67602;SDS011;54417;47.454;18.918;2023-03-19T06:58:22;10.15;;;6.10;;
67602;SDS011;54417;47.454;18.918;2023-03-19T07:03:46;6.97;;;5.40;;
67602;SDS011;54417;47.454;18.918;2023-03-19T07:09:11;14.40;;;4.80;;
67602;SDS011;54417;47.454;18.918;2023-03-19T07:14:35;9.10;;;5.03;;
67602;SDS011;54417;47.454;18.918;2023-03-19T07:19:59;8.50;;;5.50;;
67602;SDS011;54417;47.454;18.918;2023-03-19T07:25:24;5.63;;;4.78;;
67602;SDS011;54417;47.454;18.918;2023-03-19T07:30:49;8.27;;;5.10;;
67602;SDS011;54417;47.454;18.918;2023-03-19T07:36:14;7.70;;;4.35;;
67602;SDS011;54417;47.454;18.918;2023-03-19T07:41:39;9.35;;;5.10;;
67602;SDS011;54417;47.454;18.918;2023-03-19T07:47:08;7.13;;;4.65;;
67602;SDS011;54417;47.454;18.918;2023-03-19T07:52:47;7.35;;;5.13;;
67602;SDS011;54417;47.454;18.918;2023-03-19T07:58:13;8.63;;;4.47;;
67602;SDS011;54417;47.454;18.918;2023-03-19T08:03:38;8.57;;;4.07;;
67602;SDS011;54417;47.454;18.918;2023-03-19T08:09:02;6.85;;;4.53;;
67602;SDS011;54417;47.454;18.918;2023-03-19T08:14:27;5.47;;;4.40;;
67602;SDS011;54417;47.454;18.918;2023-03-19T08:19:51;5.25;;;3.70;;
67602;SDS011;54417;47.454;18.918;2023-03-19T08:25:15;11.20;;;4.30;;
67602;SDS011;54417;47.454;18.918;2023-03-19T08:30:40;8.45;;;3.88;;
67602;SDS011;54417;47.454;18.918;2023-03-19T08:36:05;9.98;;;3.97;;
67602;SDS011;54417;47.454;18.918;2023-03-19T08:41:30;6.72;;;3.83;;
67602;SDS011;54417;47.454;18.918;2023-03-19T08:46:55;7.20;;;4.13;;
67602;SDS011;54417;47.454;18.918;2023-03-19T08:52:19;11.45;;;4.32;;
67602;SDS011;54417;47.454;18.918;2023-03-19T08:57:43;4.45;;;3.70;;
67602;SDS011;54417;47.454;18.918;2023-03-19T09:03:08;8.38;;;4.22;;
67602;SDS011;54417;47.454;18.918;2023-03-19T09:08:32;5.55;;;4.38;;
67602;SDS011;54417;47.454;18.918;2023-03-19T09:13:57;7.15;;;4.35;;
67602;SDS011;54417;47.454;18.918;2023-03-19T09:19:22;6.65;;;4.40;;
67602;SDS011;54417;47.454;18.918;2023-03-19T09:24:46;6.43;;;4.40;;
67602;SDS011;54417;47.454;18.918;2023-03-19T09:30:10;6.93;;;4.30;;
67602;SDS011;54417;47.454;18.918;2023-03-19T09:35:36;8.15;;;4.50;;
67602;SDS011;54417;47.454;18.918;2023-03-19T09:41:04;8.27;;;4.32;;
67602;SDS011;54417;47.454;18.918;2023-03-19T09:46:33;7.43;;;4.30;;
67602;SDS011;54417;47.454;18.918;2023-03-19T09:52:09;6.35;;;4.63;;
67602;SDS011;54417;47.454;18.918;2023-03-19T09:57:45;6.88;;;4.03;;
67602;SDS011;54417;47.454;18.918;2023-03-19T10:03:15;8.40;;;3.97;;
67602;SDS011;54417;47.454;18.918;2023-03-19T10:09:08;9.52;;;4.10;;
67602;SDS011;54417;47.454;18.918;2023-03-19T10:14:57;5.82;;;3.67;;
67602;SDS011;54417;47.454;18.918;2023-03-19T10:20:31;7.80;;;4.10;;
67602;SDS011;54417;47.454;18.918;2023-03-19T10:26:05;5.65;;;3.97;;
67602;SDS011;54417;47.454;18.918;2023-03-19T10:31:38;10.88;;;4.88;;
67602;SDS011;54417;47.454;18.918;2023-03-19T10:37:13;5.00;;;3.67;;
67602;SDS011;54417;47.454;18.918;2023-03-19T10:48:11;6.03;;;4.03;;
67602;SDS011;54417;47.454;18.918;2023-03-19T10:53:38;7.32;;;4.43;;
67602;SDS011;54417;47.454;18.918;2023-03-19T10:59:04;7.55;;;3.88;;
67602;SDS011;54417;47.454;18.918;2023-03-19T11:04:29;4.03;;;3.60;;
67602;SDS011;54417;47.454;18.918;2023-03-19T11:09:53;6.65;;;4.00;;
67602;SDS011;54417;47.454;18.918;2023-03-19T11:15:21;7.70;;;3.72;;
67602;SDS011;54417;47.454;18.918;2023-03-19T11:20:47;4.90;;;3.33;;
67602;SDS011;54417;47.454;18.918;2023-03-19T11:26:12;5.80;;;3.83;;
67602;SDS011;54417;47.454;18.918;2023-03-19T11:31:44;4.25;;;3.67;;
67602;SDS011;54417;47.454;18.918;2023-03-19T11:37:16;4.63;;;3.70;;
67602;SDS011;54417;47.454;18.918;2023-03-19T11:42:55;6.88;;;4.53;;
67602;SDS011;54417;47.454;18.918;2023-03-19T11:48:33;8.38;;;3.38;;
67602;SDS011;54417;47.454;18.918;2023-03-19T11:54:14;4.40;;;2.90;;
67602;SDS011;54417;47.454;18.918;2023-03-19T11:59:46;9.57;;;4.00;;
67602;SDS011;54417;47.454;18.918;2023-03-19T12:05:23;3.75;;;3.42;;
67602;SDS011;54417;47.454;18.918;2023-03-19T12:10:57;5.18;;;3.88;;
67602;SDS011;54417;47.454;18.918;2023-03-19T12:16:34;4.15;;;3.15;;
67602;SDS011;54417;47.454;18.918;2023-03-19T12:22:10;6.68;;;4.07;;
67602;SDS011;54417;47.454;18.918;2023-03-19T12:27:46;6.68;;;4.32;;
67602;SDS011;54417;47.454;18.918;2023-03-19T12:33:20;5.60;;;3.90;;
67602;SDS011;54417;47.454;18.918;2023-03-19T12:38:58;7.65;;;4.53;;
67602;SDS011;54417;47.454;18.918;2023-03-19T12:44:28;12.68;;;4.05;;
67602;SDS011;54417;47.454;18.918;2023-03-19T12:49:57;6.03;;;4.38;;
67602;SDS011;54417;47.454;18.918;2023-03-19T12:55:30;5.28;;;3.72;;
67602;SDS011;54417;47.454;18.918;2023-03-19T13:00:59;7.43;;;4.63;;
67602;SDS011;54417;47.454;18.918;2023-03-19T13:06:31;6.25;;;3.83;;
67602;SDS011;54417;47.454;18.918;2023-03-19T13:12:00;7.10;;;4.28;;
67602;SDS011;54417;47.454;18.918;2023-03-19T13:22:58;5.85;;;3.60;;
67602;SDS011;54417;47.454;18.918;2023-03-19T13:28:28;9.13;;;4.55;;
67602;SDS011;54417;47.454;18.918;2023-03-19T13:33:59;6.97;;;4.60;;
67602;SDS011;54417;47.454;18.918;2023-03-19T13:39:26;7.68;;;4.15;;
67602;SDS011;54417;47.454;18.918;2023-03-19T13:45:01;5.50;;;4.50;;
67602;SDS011;54417;47.454;18.918;2023-03-19T13:50:53;8.85;;;4.97;;
67602;SDS011;54417;47.454;18.918;2023-03-19T13:56:21;6.72;;;4.57;;
67602;SDS011;54417;47.454;18.918;2023-03-19T14:01:53;5.93;;;4.03;;
67602;SDS011;54417;47.454;18.918;2023-03-19T14:07:18;6.20;;;3.75;;
67602;SDS011;54417;47.454;18.918;2023-03-19T14:12:44;5.57;;;4.22;;
67602;SDS011;54417;47.454;18.918;2023-03-19T14:18:11;7.35;;;3.90;;
67602;SDS011;54417;47.454;18.918;2023-03-19T14:23:40;6.20;;;4.07;;
67602;SDS011;54417;47.454;18.918;2023-03-19T14:29:14;9.10;;;4.35;;
67602;SDS011;54417;47.454;18.918;2023-03-19T14:34:41;5.78;;;3.78;;
67602;SDS011;54417;47.454;18.918;2023-03-19T14:40:08;5.68;;;4.13;;
67602;SDS011;54417;47.454;18.918;2023-03-19T14:45:40;10.15;;;4.40;;
67602;SDS011;54417;47.454;18.918;2023-03-19T14:51:30;6.80;;;4.30;;
67602;SDS011;54417;47.454;18.918;2023-03-19T14:57:15;8.77;;;5.85;;
67602;SDS011;54417;47.454;18.918;2023-03-19T15:02:40;11.82;;;6.25;;
67602;SDS011;54417;47.454;18.918;2023-03-19T15:08:09;8.88;;;4.30;;
67602;SDS011;54417;47.454;18.918;2023-03-19T15:13:38;15.15;;;8.00;;
67602;SDS011;54417;47.454;18.918;2023-03-19T15:19:12;19.10;;;10.75;;
67602;SDS011;54417;47.454;18.918;2023-03-19T15:24:41;13.10;;;7.93;;
67602;SDS011;54417;47.454;18.918;2023-03-19T15:30:17;12.45;;;5.32;;
67602;SDS011;54417;47.454;18.918;2023-03-19T15:35:42;7.07;;;5.00;;
67602;SDS011;54417;47.454;18.918;2023-03-19T15:41:09;14.02;;;7.53;;
67602;SDS011;54417;47.454;18.918;2023-03-19T15:46:34;19.63;;;10.40;;
67602;SDS011;54417;47.454;18.918;2023-03-19T15:52:03;28.90;;;12.32;;
67602;SDS011;54417;47.454;18.918;2023-03-19T15:57:30;66.45;;;26.60;;
67602;SDS011;54417;47.454;18.918;2023-03-19T16:02:54;9.52;;;5.60;;
67602;SDS011;54417;47.454;18.918;2023-03-19T16:08:20;10.48;;;4.70;;
67602;SDS011;54417;47.454;18.918;2023-03-19T16:13:51;11.20;;;4.78;;
67602;SDS011;54417;47.454;18.918;2023-03-19T16:19:29;10.68;;;4.53;;
67602;SDS011;54417;47.454;18.918;2023-03-19T16:24:55;27.70;;;4.32;;
67602;SDS011;54417;47.454;18.918;2023-03-19T16:30:21;15.05;;;3.92;;
67602;SDS011;54417;47.454;18.918;2023-03-19T16:35:46;12.43;;;4.53;;
67602;SDS011;54417;47.454;18.918;2023-03-19T16:41:15;9.15;;;4.90;;
67602;SDS011;54417;47.454;18.918;2023-03-19T16:46:42;10.05;;;3.92;;
67602;SDS011;54417;47.454;18.918;2023-03-19T16:52:08;15.68;;;5.03;;
67602;SDS011;54417;47.454;18.918;2023-03-19T16:57:36;11.10;;;5.05;;
67602;SDS011;54417;47.454;18.918;2023-03-19T17:03:02;14.13;;;6.47;;
67602;SDS011;54417;47.454;18.918;2023-03-19T17:08:26;14.15;;;7.80;;
67602;SDS011;54417;47.454;18.918;2023-03-19T17:13:50;11.75;;;6.68;;
67602;SDS011;54417;47.454;18.918;2023-03-19T17:19:16;12.20;;;6.10;;
67602;SDS011;54417;47.454;18.918;2023-03-19T17:24:41;10.35;;;6.28;;
67602;SDS011;54417;47.454;18.918;2023-03-19T17:30:05;13.32;;;6.60;;
67602;SDS011;54417;47.454;18.918;2023-03-19T17:35:32;16.35;;;6.30;;
67602;SDS011;54417;47.454;18.918;2023-03-19T17:40:56;10.30;;;6.43;;
67602;SDS011;54417;47.454;18.918;2023-03-19T17:46:20;11.73;;;6.60;;
67602;SDS011;54417;47.454;18.918;2023-03-19T17:51:48;20.13;;;10.02;;
67602;SDS011;54417;47.454;18.918;2023-03-19T17:57:13;34.17;;;12.70;;
67602;SDS011;54417;47.454;18.918;2023-03-19T18:02:37;21.23;;;8.43;;
67602;SDS011;54417;47.454;18.918;2023-03-19T18:08:03;17.63;;;7.88;;
67602;SDS011;54417;47.454;18.918;2023-03-19T18:13:27;10.43;;;6.63;;
67602;SDS011;54417;47.454;18.918;2023-03-19T18:18:51;15.30;;;7.22;;
67602;SDS011;54417;47.454;18.918;2023-03-19T18:24:17;18.90;;;8.57;;
67602;SDS011;54417;47.454;18.918;2023-03-19T18:29:40;19.00;;;8.98;;
67602;SDS011;54417;47.454;18.918;2023-03-19T18:35:05;20.75;;;9.38;;
67602;SDS011;54417;47.454;18.918;2023-03-19T18:40:31;14.98;;;9.45;;
67602;SDS011;54417;47.454;18.918;2023-03-19T18:45:55;20.00;;;10.55;;
67602;SDS011;54417;47.454;18.918;2023-03-19T18:51:19;28.52;;;13.18;;
67602;SDS011;54417;47.454;18.918;2023-03-19T18:56:44;25.50;;;13.65;;
67602;SDS011;54417;47.454;18.918;2023-03-19T19:02:18;25.60;;;11.35;;
67602;SDS011;54417;47.454;18.918;2023-03-19T19:07:46;32.17;;;13.60;;
67602;SDS011;54417;47.454;18.918;2023-03-19T19:13:13;25.80;;;12.00;;
67602;SDS011;54417;47.454;18.918;2023-03-19T19:18:40;26.10;;;12.63;;
67602;SDS011;54417;47.454;18.918;2023-03-19T19:24:04;28.98;;;13.10;;
67602;SDS011;54417;47.454;18.918;2023-03-19T19:29:30;23.52;;;12.73;;
67602;SDS011;54417;47.454;18.918;2023-03-19T19:34:53;25.05;;;12.98;;
67602;SDS011;54417;47.454;18.918;2023-03-19T19:40:18;31.92;;;14.52;;
67602;SDS011;54417;47.454;18.918;2023-03-19T19:45:45;33.33;;;13.95;;
67602;SDS011;54417;47.454;18.918;2023-03-19T19:51:12;26.58;;;14.05;;
67602;SDS011;54417;47.454;18.918;2023-03-19T19:56:40;24.52;;;12.63;;
67602;SDS011;54417;47.454;18.918;2023-03-19T20:02:10;24.58;;;13.35;;
67602;SDS011;54417;47.454;18.918;2023-03-19T20:07:44;21.92;;;10.93;;
67602;SDS011;54417;47.454;18.918;2023-03-19T20:13:09;30.10;;;13.32;;
67602;SDS011;54417;47.454;18.918;2023-03-19T20:18:42;27.73;;;14.20;;
67602;SDS011;54417;47.454;18.918;2023-03-19T20:24:07;29.67;;;14.95;;
67602;SDS011;54417;47.454;18.918;2023-03-19T20:29:32;36.55;;;14.25;;
67602;SDS011;54417;47.454;18.918;2023-03-19T20:35:00;28.65;;;14.20;;
67602;SDS011;54417;47.454;18.918;2023-03-19T20:40:24;31.50;;;13.30;;
67602;SDS011;54417;47.454;18.918;2023-03-19T20:45:51;27.33;;;12.38;;
67602;SDS011;54417;47.454;18.918;2023-03-19T20:51:17;23.50;;;10.75;;
67602;SDS011;54417;47.454;18.918;2023-03-19T20:56:44;20.73;;;11.13;;
67602;SDS011;54417;47.454;18.918;2023-03-19T21:02:12;19.02;;;10.27;;
67602;SDS011;54417;47.454;18.918;2023-03-19T21:07:39;19.90;;;11.07;;
67602;SDS011;54417;47.454;18.918;2023-03-19T21:13:03;18.02;;;11.05;;
67602;SDS011;54417;47.454;18.918;2023-03-19T21:18:28;24.30;;;11.65;;
67602;SDS011;54417;47.454;18.918;2023-03-19T21:23:54;19.75;;;10.77;;
67602;SDS011;54417;47.454;18.918;2023-03-19T21:29:24;20.23;;;10.00;;
67602;SDS011;54417;47.454;18.918;2023-03-19T21:34:51;21.60;;;10.35;;
67602;SDS011;54417;47.454;18.918;2023-03-19T21:40:17;18.75;;;9.77;;
67602;SDS011;54417;47.454;18.918;2023-03-19T21:45:42;31.23;;;10.60;;
67602;SDS011;54417;47.454;18.918;2023-03-19T21:51:06;20.38;;;10.27;;
67602;SDS011;54417;47.454;18.918;2023-03-19T21:56:32;21.58;;;9.82;;
67602;SDS011;54417;47.454;18.918;2023-03-19T22:02:00;20.60;;;10.15;;
67602;SDS011;54417;47.454;18.918;2023-03-19T22:07:25;24.80;;;9.90;;
67602;SDS011;54417;47.454;18.918;2023-03-19T22:12:50;21.35;;;10.65;;
67602;SDS011;54417;47.454;18.918;2023-03-19T22:18:14;17.02;;;10.07;;
67602;SDS011;54417;47.454;18.918;2023-03-19T22:23:38;21.45;;;9.23;;
67602;SDS011;54417;47.454;18.918;2023-03-19T22:29:04;16.85;;;9.70;;
67602;SDS011;54417;47.454;18.918;2023-03-19T22:34:29;16.38;;;8.20;;
67602;SDS011;54417;47.454;18.918;2023-03-19T22:39:53;18.33;;;8.23;;
67602;SDS011;54417;47.454;18.918;2023-03-19T22:45:21;15.68;;;8.65;;
67602;SDS011;54417;47.454;18.918;2023-03-19T22:50:48;23.38;;;11.07;;
67602;SDS011;54417;47.454;18.918;2023-03-19T22:56:12;20.50;;;10.50;;
67602;SDS011;54417;47.454;18.918;2023-03-19T23:01:38;19.38;;;9.98;;
67602;SDS011;54417;47.454;18.918;2023-03-19T23:07:04;21.20;;;9.73;;
67602;SDS011;54417;47.454;18.918;2023-03-19T23:12:28;15.73;;;10.35;;
67602;SDS011;54417;47.454;18.918;2023-03-19T23:17:54;18.60;;;8.40;;
67602;SDS011;54417;47.454;18.918;2023-03-19T23:23:20;14.13;;;8.20;;
67602;SDS011;54417;47.454;18.918;2023-03-19T23:28:44;18.67;;;8.93;;
67602;SDS011;54417;47.454;18.918;2023-03-19T23:34:10;15.52;;;8.40;;
67602;SDS011;54417;47.454;18.918;2023-03-19T23:39:34;23.33;;;10.45;;
67602;SDS011;54417;47.454;18.918;2023-03-19T23:45:00;24.95;;;10.02;;
67602;SDS011;54417;47.454;18.918;2023-03-19T23:50:27;22.45;;;9.98;;
67602;SDS011;54417;47.454;18.918;2023-03-19T23:55:52;24.00;;;9.27;;
